Westwood Rainier — C6SI3 — position and weather

sailwx.info

Track history (hours):
 
Tides and Currents Weather Stations Pressure Air Temp Water Temp Dewpoint Dewpoint Depression Visibility Wind Speed Wind Dir Waves Ship Positions

Westwood Rainier

Last reported at 2014-Nov-28 09:33 UTC. Time now 2014-Nov-28 09:43 UTC.
Position N 47°17' W 122°25'.

Type: Cargo ship. MMSI: 311348993.

Date/timePositionNaut miles runAvg speedWind from/ knotsBaromVisibWave heightAir tempDewpointWater temp
2014-Nov-28 09:33N 47°17' W 122°25'0 0.0
2014-Nov-28 08:33N 47°17' W 122°25'0 0.0
2014-Nov-28 07:33N 47°17' W 122°25'0 0.0
2014-Nov-28 06:33N 47°17' W 122°25'0 0.0
2014-Nov-28 05:33N 47°17' W 122°25'0 0.0
2014-Nov-28 04:30N 47°17' W 122°25'0 0.0
2014-Nov-28 03:33N 47°17' W 122°25'0 0.0
2014-Nov-28 02:30N 47°17' W 122°25'0 0.0
2014-Nov-28 01:33N 47°17' W 122°25'0 0.0
2014-Nov-28 00:33N 47°17' W 122°25'0 0.0
2014-Nov-27 23:33N 47°17' W 122°25'0 0.0
2014-Nov-27 22:33N 47°17' W 122°25'0 0.0
2014-Nov-27 21:33N 47°17' W 122°25'0 0.0
2014-Nov-27 20:33N 47°17' W 122°25'0 0.0
2014-Nov-27 19:33N 47°17' W 122°25'0 0.0
2014-Nov-27 18:27N 47°17' W 122°25'0 0.0
2014-Nov-27 17:33N 47°17' W 122°25'0 0.0
2014-Nov-27 16:33N 47°17' W 122°25'0 0.0
2014-Nov-27 15:33N 47°17' W 122°25'0 0.0
2014-Nov-27 14:33N 47°17' W 122°25'0 0.0
2014-Nov-27 13:30N 47°17' W 122°25'0 0.0
2014-Nov-27 12:30N 47°17' W 122°25'0 0.0
2014-Nov-27 11:31N 47°17' W 122°25'0 0.0
2014-Nov-27 10:33N 47°17' W 122°25'0 0.0
2014-Nov-27 09:33N 47°17' W 122°25'0 0.0
2014-Nov-27 08:33N 47°17' W 122°25'0 0.0
2014-Nov-27 07:33N 47°17' W 122°25'0 0.0
2014-Nov-27 06:33N 47°17' W 122°25'0 0.0
2014-Nov-27 05:33N 47°17' W 122°25'0 0.0
2014-Nov-27 04:33N 47°17' W 122°25'0 0.0
2014-Nov-27 03:30N 47°17' W 122°25'0 0.0
2014-Nov-27 02:33N 47°17' W 122°25'0 0.0
2014-Nov-27 01:33N 47°17' W 122°25'0 0.0
2014-Nov-27 00:33N 47°17' W 122°25'0 0.0
2014-Nov-26 23:33N 47°17' W 122°25'0 0.0
2014-Nov-26 22:33N 47°17' W 122°25'0 0.0
2014-Nov-26 21:33N 47°17' W 122°25'0 0.0
2014-Nov-26 20:33N 47°17' W 122°25'0 0.0
2014-Nov-26 19:30N 47°17' W 122°25'0 0.0
2014-Nov-26 18:33N 47°17' W 122°25'0 0.0
2014-Nov-26 17:33N 47°17' W 122°25'0 0.0
2014-Nov-26 16:33N 47°17' W 122°25'0 0.0
2014-Nov-26 15:30N 47°17' W 122°25'0 0.0
2014-Nov-26 14:33N 47°17' W 122°25'1 1.5
2014-Nov-26 13:33N 47°17' W 122°26'10 9.9
2014-Nov-26 12:33N 47°27' W 122°25'1414.3
2014-Nov-26 11:33N 47°42' W 122°28'1414.2
2014-Nov-26 10:33N 47°55' W 122°21'6 5.8
2014-Nov-26 09:31N 47°59' W 122°13'0 0.0
2014-Nov-26 08:31N 47°59' W 122°13'0 0.0
2014-Nov-26 07:25N 47°59' W 122°13'0 0.0
2014-Nov-26 06:28N 47°59' W 122°13'0 0.0
2014-Nov-26 04:31N 47°59' W 122°13'0 0.0
2014-Nov-26 03:31N 47°59' W 122°13'0 0.0
2014-Nov-26 02:31N 47°59' W 122°13'0 0.0
2014-Nov-26 01:28N 47°59' W 122°13'0 0.0
2014-Nov-26 00:31N 47°59' W 122°13'0 0.0
2014-Nov-25 23:32N 47°59' W 122°13'4 4.5
2014-Nov-25 22:33N 47°57' W 122°20'9 8.7
2014-Nov-25 21:34N 47°57' W 122°33'1513.7
2014-Nov-25 20:26N 48°09' W 122°45'1213.8
2014-Nov-25 19:32N 48°12' W 123°03'1313.6
2014-Nov-25 18:33N 48°10' W 123°23'1010.1
2014-Nov-25 17:33N 48°13' W 123°38'8 7.6
2014-Nov-25 16:32N 48°13' W 123°49'1110.7
2014-Nov-25 15:33N 48°16' W 124°04'1312.6
2014-Nov-25 14:33N 48°21' W 124°22'1212.5
2014-Nov-25 13:33N 48°27' W 124°38'1414.1
2014-Nov-25 12:33N 48°28' W 124°59'1514.5
2014-Nov-25 11:34N 48°28' W 125°21'1414.2
2014-Nov-25 10:33N 48°29' W 125°43'1413.6
2014-Nov-25 09:33N 48°31' W 126°03'1413.6
2014-Nov-25 08:33N 48°40' W 126°18'1712.7
2014-Nov-25 07:15N 48°52' W 126°36'913.4
2014-Nov-25 06:33N 48°58' W 126°46'13 9.5
2014-Nov-25 05:10N 49°07' W 127°01'  
Track history (hours):
 
Tides and Currents Weather Stations Pressure Air Temp Water Temp Dewpoint Dewpoint Depression Visibility Wind Speed Wind Dir Waves Ship Positions

Westwood Rainier

Last reported at 2014-Nov-28 09:33 UTC. Time now 2014-Nov-28 09:43 UTC.
Position N 47°17' W 122°25'.

Type: Cargo ship. MMSI: 311348993.

Date/timePositionNaut miles runAvg speedWind from/ knotsBaromVisibWave heightAir tempDewpointWater temp
2014-Nov-28 09:33N 47°17' W 122°25'0 0.0
2014-Nov-28 08:33N 47°17' W 122°25'0 0.0
2014-Nov-28 07:33N 47°17' W 122°25'0 0.0
2014-Nov-28 06:33N 47°17' W 122°25'0 0.0
2014-Nov-28 05:33N 47°17' W 122°25'0 0.0
2014-Nov-28 04:30N 47°17' W 122°25'0 0.0
2014-Nov-28 03:33N 47°17' W 122°25'0 0.0
2014-Nov-28 02:30N 47°17' W 122°25'0 0.0
2014-Nov-28 01:33N 47°17' W 122°25'0 0.0
2014-Nov-28 00:33N 47°17' W 122°25'0 0.0
2014-Nov-27 23:33N 47°17' W 122°25'0 0.0
2014-Nov-27 22:33N 47°17' W 122°25'0 0.0
2014-Nov-27 21:33N 47°17' W 122°25'0 0.0
2014-Nov-27 20:33N 47°17' W 122°25'0 0.0
2014-Nov-27 19:33N 47°17' W 122°25'0 0.0
2014-Nov-27 18:27N 47°17' W 122°25'0 0.0
2014-Nov-27 17:33N 47°17' W 122°25'0 0.0
2014-Nov-27 16:33N 47°17' W 122°25'0 0.0
2014-Nov-27 15:33N 47°17' W 122°25'0 0.0
2014-Nov-27 14:33N 47°17' W 122°25'0 0.0
2014-Nov-27 13:30N 47°17' W 122°25'0 0.0
2014-Nov-27 12:30N 47°17' W 122°25'0 0.0
2014-Nov-27 11:31N 47°17' W 122°25'0 0.0
2014-Nov-27 10:33N 47°17' W 122°25'0 0.0
2014-Nov-27 09:33N 47°17' W 122°25'0 0.0
2014-Nov-27 08:33N 47°17' W 122°25'0 0.0
2014-Nov-27 07:33N 47°17' W 122°25'0 0.0
2014-Nov-27 06:33N 47°17' W 122°25'0 0.0
2014-Nov-27 05:33N 47°17' W 122°25'0 0.0
2014-Nov-27 04:33N 47°17' W 122°25'0 0.0
2014-Nov-27 03:30N 47°17' W 122°25'0 0.0
2014-Nov-27 02:33N 47°17' W 122°25'0 0.0
2014-Nov-27 01:33N 47°17' W 122°25'0 0.0
2014-Nov-27 00:33N 47°17' W 122°25'0 0.0
2014-Nov-26 23:33N 47°17' W 122°25'0 0.0
2014-Nov-26 22:33N 47°17' W 122°25'0 0.0
2014-Nov-26 21:33N 47°17' W 122°25'0 0.0
2014-Nov-26 20:33N 47°17' W 122°25'0 0.0
2014-Nov-26 19:30N 47°17' W 122°25'0 0.0
2014-Nov-26 18:33N 47°17' W 122°25'0 0.0
2014-Nov-26 17:33N 47°17' W 122°25'0 0.0
2014-Nov-26 16:33N 47°17' W 122°25'0 0.0
2014-Nov-26 15:30N 47°17' W 122°25'0 0.0
2014-Nov-26 14:33N 47°17' W 122°25'1 1.5
2014-Nov-26 13:33N 47°17' W 122°26'10 9.9
2014-Nov-26 12:33N 47°27' W 122°25'1414.3
2014-Nov-26 11:33N 47°42' W 122°28'1414.2
2014-Nov-26 10:33N 47°55' W 122°21'6 5.8
2014-Nov-26 09:31N 47°59' W 122°13'0 0.0
2014-Nov-26 08:31N 47°59' W 122°13'0 0.0
2014-Nov-26 07:25N 47°59' W 122°13'0 0.0
2014-Nov-26 06:28N 47°59' W 122°13'0 0.0
2014-Nov-26 04:31N 47°59' W 122°13'0 0.0
2014-Nov-26 03:31N 47°59' W 122°13'0 0.0
2014-Nov-26 02:31N 47°59' W 122°13'0 0.0
2014-Nov-26 01:28N 47°59' W 122°13'0 0.0
2014-Nov-26 00:31N 47°59' W 122°13'0 0.0
2014-Nov-25 23:32N 47°59' W 122°13'4 4.5
2014-Nov-25 22:33N 47°57' W 122°20'9 8.7
2014-Nov-25 21:34N 47°57' W 122°33'1513.7
2014-Nov-25 20:26N 48°09' W 122°45'1213.8
2014-Nov-25 19:32N 48°12' W 123°03'1313.6
2014-Nov-25 18:33N 48°10' W 123°23'1010.1
2014-Nov-25 17:33N 48°13' W 123°38'8 7.6
2014-Nov-25 16:32N 48°13' W 123°49'1110.7
2014-Nov-25 15:33N 48°16' W 124°04'1312.6
2014-Nov-25 14:33N 48°21' W 124°22'1212.5
2014-Nov-25 13:33N 48°27' W 124°38'1414.1
2014-Nov-25 12:33N 48°28' W 124°59'1514.5
2014-Nov-25 11:34N 48°28' W 125°21'1414.2
2014-Nov-25 10:33N 48°29' W 125°43'1413.6
2014-Nov-25 09:33N 48°31' W 126°03'1413.6
2014-Nov-25 08:33N 48°40' W 126°18'1712.7
2014-Nov-25 07:15N 48°52' W 126°36'913.4
2014-Nov-25 06:33N 48°58' W 126°46'13 9.5
2014-Nov-25 05:10N 49°07' W 127°01'  

Dump ship's entire track history